createdAt,value
2022-08-28T00:02:15.318Z,20.55
2022-08-28T00:07:18.365Z,20.54
2022-08-28T00:12:20.396Z,20.44
2022-08-28T00:17:22.349Z,20.49
2022-08-28T00:22:24.384Z,20.50
2022-08-28T00:27:44.890Z,20.44
2022-08-28T00:32:47.264Z,20.37
2022-08-28T00:37:50.624Z,20.32
2022-08-28T00:42:54.568Z,20.26
2022-08-28T00:47:56.794Z,20.17
2022-08-28T00:53:00.854Z,20.11
2022-08-28T00:58:03.141Z,20.06
2022-08-28T01:03:05.874Z,20.03
2022-08-28T01:08:07.885Z,20.00
2022-08-28T01:13:10.144Z,19.89
2022-08-28T01:18:15.789Z,19.91
2022-08-28T01:23:38.941Z,19.84
2022-08-28T01:28:43.020Z,19.83
2022-08-28T01:33:46.317Z,19.77
2022-08-28T01:39:00.748Z,19.70
2022-08-28T01:44:02.744Z,19.79
2022-08-28T01:49:04.851Z,19.73
2022-08-28T01:54:06.978Z,19.81
2022-08-28T01:59:10.264Z,19.65
2022-08-28T02:04:12.370Z,19.65
2022-08-28T02:09:14.932Z,19.66
2022-08-28T02:14:16.963Z,19.69
2022-08-28T02:19:18.988Z,19.66
2022-08-28T02:24:21.445Z,19.57
2022-08-28T02:29:23.573Z,19.66
2022-08-28T02:34:25.556Z,19.66
2022-08-28T02:39:28.160Z,19.62
2022-08-28T02:44:30.112Z,19.56
2022-08-28T02:49:36.124Z,19.43
2022-08-28T02:54:40.110Z,19.30
2022-08-28T02:59:43.398Z,19.29
2022-08-28T03:04:45.373Z,19.27
2022-08-28T03:09:47.365Z,19.37
2022-08-28T03:14:49.744Z,19.29
2022-08-28T03:19:52.118Z,19.40
2022-08-28T03:24:54.124Z,19.41
2022-08-28T03:29:56.093Z,19.33
2022-08-28T03:34:58.284Z,19.38
2022-08-28T03:40:00.776Z,19.39
2022-08-28T03:45:03.033Z,19.44
2022-08-28T03:50:06.791Z,19.45
2022-08-28T03:55:12.587Z,19.53
2022-08-28T04:00:15.976Z,19.59
2022-08-28T04:05:18.176Z,19.65
2022-08-28T04:10:20.248Z,19.65
2022-08-28T04:15:22.444Z,19.69
2022-08-28T04:20:24.496Z,19.85
2022-08-28T04:25:26.944Z,19.98
2022-08-28T04:30:28.951Z,20.16
2022-08-28T04:35:30.938Z,20.18
2022-08-28T04:40:33.064Z,20.49
2022-08-28T04:45:43.006Z,20.66
2022-08-28T04:50:47.653Z,20.77
2022-08-28T04:55:54.440Z,20.92
2022-08-28T05:00:57.140Z,21.15
2022-08-28T05:05:59.368Z,21.31
2022-08-28T05:11:13.856Z,21.59
2022-08-28T05:16:43.074Z,21.73
2022-08-28T05:21:45.331Z,21.64
2022-08-28T05:26:48.072Z,21.74
2022-08-28T05:31:50.514Z,21.85
2022-08-28T05:36:52.652Z,21.92
2022-08-28T05:41:54.773Z,21.74
2022-08-28T05:46:56.956Z,22.05
2022-08-28T05:51:58.984Z,22.08
2022-08-28T05:57:00.938Z,21.77
2022-08-28T06:02:06.114Z,22.19
2022-08-28T06:07:09.283Z,22.28
2022-08-28T06:12:11.853Z,22.40
2022-08-28T06:17:14.177Z,22.58
2022-08-28T06:22:16.156Z,22.65
2022-08-28T06:27:18.156Z,22.75
2022-08-28T06:32:20.166Z,23.01
2022-08-28T06:37:22.154Z,23.13
2022-08-28T06:42:24.268Z,23.24
2022-08-28T06:47:26.249Z,23.45
2022-08-28T06:52:28.253Z,23.56
2022-08-28T06:57:31.711Z,23.73
2022-08-28T07:02:33.668Z,23.73
2022-08-28T07:07:36.169Z,23.81
2022-08-28T07:12:38.231Z,24.04
2022-08-28T07:17:40.236Z,24.16
2022-08-28T07:22:42.163Z,24.32
2022-08-28T07:27:44.272Z,24.46
2022-08-28T07:32:49.219Z,24.65
2022-08-28T07:37:51.184Z,24.76
2022-08-28T07:43:11.664Z,24.77
2022-08-28T07:48:14.363Z,25.08
2022-08-28T07:53:16.472Z,25.28
2022-08-28T07:58:19.835Z,25.47
2022-08-28T08:03:22.898Z,25.68
2022-08-28T08:08:25.569Z,25.78
2022-08-28T08:13:28.630Z,25.86
2022-08-28T08:18:30.512Z,26.02
2022-08-28T08:23:35.057Z,26.11
2022-08-28T08:28:38.636Z,26.25
2022-08-28T08:33:46.053Z,26.33
2022-08-28T08:38:48.573Z,26.49
2022-08-28T08:44:23.745Z,26.72
2022-08-28T08:49:40.802Z,26.89
2022-08-28T08:54:45.100Z,26.98
2022-08-28T08:59:47.118Z,27.25
2022-08-28T09:04:51.374Z,27.40
2022-08-28T09:09:55.526Z,27.50
2022-08-28T09:15:05.228Z,27.61
2022-08-28T09:20:10.281Z,27.75
2022-08-28T09:25:33.440Z,27.87
2022-08-28T09:30:35.304Z,28.09
2022-08-28T09:35:37.772Z,28.11
2022-08-28T09:40:58.448Z,28.19
2022-08-28T09:46:16.039Z,28.34
2022-08-28T09:51:20.991Z,28.40
2022-08-28T09:56:34.031Z,28.54
2022-08-28T10:01:43.378Z,28.32
2022-08-28T10:06:53.013Z,28.74
2022-08-28T10:11:55.189Z,28.72
2022-08-28T10:17:30.964Z,28.86
2022-08-28T10:22:32.969Z,29.04
2022-08-28T10:27:59.869Z,29.13
2022-08-28T10:33:20.401Z,29.17
2022-08-28T10:38:43.191Z,29.26
2022-08-28T10:43:48.107Z,29.30
2022-08-28T10:49:00.614Z,29.47
2022-08-28T10:54:24.548Z,29.75
2022-08-28T10:59:29.835Z,29.86
2022-08-28T11:04:32.226Z,29.98
2022-08-28T11:09:52.541Z,29.98
2022-08-28T11:14:54.582Z,30.17
2022-08-28T11:20:16.291Z,30.31
2022-08-28T11:25:34.791Z,30.34
2022-08-28T11:30:38.071Z,30.23
2022-08-28T11:35:44.342Z,30.42
2022-08-28T11:40:53.260Z,30.50
2022-08-28T11:45:56.771Z,30.51
2022-08-28T11:51:04.324Z,30.69
2022-08-28T11:56:09.442Z,30.84
2022-08-28T12:01:14.149Z,30.60
2022-08-28T12:06:16.342Z,30.99
2022-08-28T12:11:40.416Z,31.10
2022-08-28T12:17:01.421Z,31.21
2022-08-28T12:22:13.267Z,31.29
2022-08-28T12:27:15.627Z,31.36
2022-08-28T12:32:34.476Z,31.38
2022-08-28T12:37:39.564Z,31.63
2022-08-28T12:43:02.457Z,31.79
2022-08-28T12:48:21.353Z,31.85
2022-08-28T12:53:23.714Z,32.03
2022-08-28T12:58:30.399Z,32.07
2022-08-28T13:03:33.251Z,32.30
2022-08-28T13:08:36.118Z,32.50
2022-08-28T13:13:40.498Z,32.34
2022-08-28T13:18:53.709Z,32.09
2022-08-28T13:23:59.916Z,32.39
2022-08-28T13:29:05.625Z,32.11
2022-08-28T13:34:09.407Z,32.14
2022-08-28T13:39:13.169Z,32.22
2022-08-28T13:44:32.596Z,32.28
2022-08-28T13:49:35.469Z,32.16
2022-08-28T13:54:42.557Z,32.18
2022-08-28T13:59:45.871Z,31.98
2022-08-28T14:04:47.869Z,31.86
2022-08-28T14:09:55.490Z,32.08
2022-08-28T14:14:58.414Z,32.39
2022-08-28T14:20:00.407Z,32.29
2022-08-28T14:25:08.772Z,32.62
2022-08-28T14:30:11.524Z,32.61
2022-08-28T14:35:14.822Z,32.64
2022-08-28T14:40:16.963Z,32.62
2022-08-28T14:45:18.971Z,32.59
2022-08-28T14:50:20.926Z,32.83
2022-08-28T14:55:23.144Z,32.64
2022-08-28T15:00:25.145Z,32.81
2022-08-28T15:05:27.438Z,32.58
2022-08-28T15:10:29.767Z,32.38
2022-08-28T15:15:33.277Z,32.18
2022-08-28T15:20:39.605Z,31.97
2022-08-28T15:25:41.817Z,31.86
2022-08-28T15:30:43.999Z,31.88
2022-08-28T15:35:46.087Z,32.01
2022-08-28T15:41:06.847Z,32.42
2022-08-28T15:46:13.291Z,32.52
2022-08-28T15:51:19.409Z,32.46
2022-08-28T15:56:23.983Z,32.20
2022-08-28T16:01:26.065Z,31.72
2022-08-28T16:06:29.217Z,31.35
2022-08-28T16:11:32.219Z,30.91
2022-08-28T16:16:35.983Z,30.41
2022-08-28T16:21:38.954Z,30.09
2022-08-28T16:26:41.135Z,29.60
2022-08-28T16:31:43.373Z,29.17
2022-08-28T16:36:48.380Z,28.92
2022-08-28T16:41:50.830Z,28.71
2022-08-28T16:46:54.191Z,28.56
2022-08-28T16:52:05.051Z,28.20
2022-08-28T16:57:11.442Z,27.88
2022-08-28T17:02:15.667Z,27.87
2022-08-28T17:07:26.827Z,27.55
2022-08-28T17:12:31.980Z,27.52
2022-08-28T17:17:35.145Z,27.04
2022-08-28T17:22:37.179Z,26.53
2022-08-28T17:27:42.318Z,25.94
2022-08-28T17:32:44.597Z,25.21
2022-08-28T17:37:46.708Z,24.61
2022-08-28T17:42:48.865Z,24.38
2022-08-28T17:47:52.734Z,24.40
2022-08-28T17:52:55.695Z,24.41
2022-08-28T17:57:57.888Z,23.98
2022-08-28T18:03:00.018Z,24.11
2022-08-28T18:08:01.953Z,24.01
2022-08-28T18:13:05.039Z,24.16
2022-08-28T18:18:07.038Z,24.12
2022-08-28T18:23:09.166Z,24.04
2022-08-28T18:28:37.870Z,24.11
2022-08-28T18:33:40.812Z,23.76
2022-08-28T18:38:43.916Z,23.83
2022-08-28T18:43:46.203Z,23.88
2022-08-28T18:48:48.526Z,23.80
2022-08-28T18:53:52.076Z,23.82
2022-08-28T18:58:55.064Z,23.74
2022-08-28T19:03:57.093Z,23.70
2022-08-28T19:08:59.221Z,23.60
2022-08-28T19:14:03.775Z,23.58
2022-08-28T19:19:06.327Z,23.60
2022-08-28T19:24:11.793Z,23.52
2022-08-28T19:29:14.315Z,23.66
2022-08-28T19:34:17.065Z,23.59
2022-08-28T19:39:20.660Z,23.49
2022-08-28T19:44:22.808Z,23.64
2022-08-28T19:49:25.055Z,23.51
2022-08-28T19:54:27.228Z,23.18
2022-08-28T19:59:31.448Z,23.16
2022-08-28T20:04:33.834Z,22.91
2022-08-28T20:09:35.825Z,22.86
2022-08-28T20:14:41.443Z,22.87
2022-08-28T20:19:43.439Z,22.86
2022-08-28T20:24:45.567Z,22.80
2022-08-28T20:29:47.587Z,22.72
2022-08-28T20:34:49.810Z,22.78
2022-08-28T20:39:56.835Z,22.60
2022-08-28T20:44:59.428Z,22.98
2022-08-28T20:50:01.590Z,23.10
2022-08-28T20:55:05.404Z,23.11
2022-08-28T21:00:09.782Z,23.17
2022-08-28T21:05:12.220Z,23.27
2022-08-28T21:10:14.270Z,23.23
2022-08-28T21:15:16.244Z,23.18
2022-08-28T21:20:20.069Z,23.25
2022-08-28T21:25:24.645Z,23.08
2022-08-28T21:30:29.545Z,23.12
2022-08-28T21:35:32.169Z,23.02
2022-08-28T21:40:35.828Z,22.97
2022-08-28T21:45:37.918Z,22.97
2022-08-28T21:50:42.904Z,22.99
2022-08-28T21:55:49.917Z,22.98
2022-08-28T22:00:55.359Z,22.91
2022-08-28T22:05:57.832Z,22.95
2022-08-28T22:10:59.817Z,22.98
2022-08-28T22:16:01.912Z,22.97
2022-08-28T22:21:23.725Z,22.86
2022-08-28T22:26:26.400Z,22.81
2022-08-28T22:31:29.524Z,22.79
2022-08-28T22:36:31.751Z,22.85
2022-08-28T22:41:34.100Z,22.79
2022-08-28T22:46:36.209Z,22.54
2022-08-28T22:51:38.241Z,22.42
2022-08-28T22:56:40.292Z,22.63
2022-08-28T23:01:42.941Z,22.71
2022-08-28T23:06:59.106Z,22.68
2022-08-28T23:12:01.616Z,22.46
2022-08-28T23:17:03.786Z,22.71
2022-08-28T23:22:06.556Z,22.70
2022-08-28T23:27:32.545Z,22.75
2022-08-28T23:32:30.708Z,22.69
2022-08-28T23:37:36.927Z,22.78
2022-08-28T23:42:39.897Z,22.75
2022-08-28T23:47:42.203Z,22.78
2022-08-28T23:52:44.925Z,22.72
2022-08-28T23:57:47.401Z,22.71
